createdAt,value
2022-09-24T00:01:19.460Z,100.00
2022-09-24T00:03:51.132Z,100.00
2022-09-24T00:06:21.405Z,100.00
2022-09-24T00:08:50.353Z,100.00
2022-09-24T00:11:18.548Z,100.00
2022-09-24T00:13:45.282Z,100.00
2022-09-24T00:16:13.347Z,100.00
2022-09-24T00:18:40.264Z,100.00
2022-09-24T00:21:17.189Z,100.00
2022-09-24T00:23:43.867Z,100.00
2022-09-24T00:26:30.694Z,100.00
2022-09-24T00:28:58.221Z,100.00
2022-09-24T00:31:25.182Z,100.00
2022-09-24T00:33:52.172Z,100.00
2022-09-24T00:36:20.478Z,100.00
2022-09-24T00:38:54.733Z,100.00
2022-09-24T00:41:24.129Z,100.00
2022-09-24T00:43:51.135Z,100.00
2022-09-24T00:46:28.123Z,100.00
2022-09-24T00:48:58.508Z,100.00
2022-09-24T00:51:26.977Z,100.00
2022-09-24T00:54:00.461Z,100.00
2022-09-24T00:56:28.965Z,100.00
2022-09-24T00:58:56.893Z,100.00
2022-09-24T01:01:24.758Z,100.00
2022-09-24T01:03:53.488Z,100.00
2022-09-24T01:06:19.947Z,100.00
2022-09-24T01:08:46.932Z,100.00
2022-09-24T01:11:19.493Z,100.00
2022-09-24T01:14:21.199Z,100.00
2022-09-24T01:16:53.752Z,100.00
2022-09-24T01:20:01.504Z,100.00
2022-09-24T01:22:43.401Z,100.00
2022-09-24T01:25:45.188Z,100.00
2022-09-24T01:28:50.580Z,100.00
2022-09-24T01:31:26.248Z,100.00
2022-09-24T01:33:53.389Z,100.00
2022-09-24T01:36:22.035Z,100.00
2022-09-24T01:38:49.969Z,100.00
2022-09-24T01:41:17.545Z,100.00
2022-09-24T01:43:44.671Z,100.00
2022-09-24T01:46:12.875Z,100.00
2022-09-24T01:48:40.401Z,100.00
2022-09-24T01:51:23.628Z,100.00
2022-09-24T01:53:54.847Z,100.00
2022-09-24T01:56:25.534Z,100.00
2022-09-24T01:58:55.777Z,100.00
2022-09-24T02:01:32.527Z,100.00
2022-09-24T02:04:05.699Z,100.00
2022-09-24T02:07:02.266Z,100.00
2022-09-24T02:09:34.311Z,100.00
2022-09-24T02:12:26.485Z,100.00
2022-09-24T02:15:03.935Z,100.00
2022-09-24T02:17:33.590Z,100.00
2022-09-24T02:20:01.696Z,100.00
2022-09-24T02:22:29.796Z,100.00
2022-09-24T02:24:58.427Z,100.00
2022-09-24T02:27:27.909Z,100.00
2022-09-24T02:29:56.048Z,100.00
2022-09-24T02:32:23.556Z,100.00
2022-09-24T02:34:56.736Z,100.00
2022-09-24T02:37:24.607Z,100.00
2022-09-24T02:39:51.389Z,100.00
2022-09-24T02:42:19.291Z,100.00
2022-09-24T02:44:47.422Z,100.00
2022-09-24T02:47:14.366Z,100.00
2022-09-24T02:49:40.939Z,100.00
2022-09-24T02:52:07.503Z,100.00
2022-09-24T02:54:34.271Z,100.00
2022-09-24T02:57:00.741Z,100.00
2022-09-24T02:59:27.209Z,100.00
2022-09-24T03:01:53.802Z,100.00
2022-09-24T03:04:21.735Z,100.00
2022-09-24T03:06:48.206Z,100.00
2022-09-24T03:09:14.807Z,100.00
2022-09-24T03:11:41.306Z,100.00
2022-09-24T03:14:07.865Z,100.00
2022-09-24T03:16:34.586Z,100.00
2022-09-24T03:19:01.136Z,100.00
2022-09-24T03:21:27.593Z,100.00
2022-09-24T03:23:54.062Z,100.00
2022-09-24T03:26:20.622Z,100.00
2022-09-24T03:28:47.094Z,100.00
2022-09-24T03:31:13.981Z,100.00
2022-09-24T03:33:42.955Z,100.00
2022-09-24T03:36:18.898Z,100.00
2022-09-24T03:38:46.559Z,100.00
2022-09-24T03:41:13.295Z,100.00
2022-09-24T03:43:39.797Z,100.00
2022-09-24T03:46:07.339Z,100.00
2022-09-24T03:48:35.981Z,100.00
2022-09-24T03:51:07.741Z,100.00
2022-09-24T03:53:34.222Z,100.00
2022-09-24T03:56:02.387Z,100.00
2022-09-24T03:58:31.596Z,100.00
2022-09-24T04:00:58.415Z,100.00
2022-09-24T04:03:25.230Z,100.00
2022-09-24T04:05:51.870Z,100.00
2022-09-24T04:08:19.523Z,100.00
2022-09-24T04:10:46.713Z,100.00
2022-09-24T04:13:13.299Z,100.00
2022-09-24T04:15:40.901Z,100.00
2022-09-24T04:18:07.392Z,100.00
2022-09-24T04:20:34.686Z,100.00
2022-09-24T04:23:01.441Z,100.00
2022-09-24T04:25:30.603Z,100.00
2022-09-24T04:28:02.756Z,100.00
2022-09-24T04:30:30.333Z,100.00
2022-09-24T04:33:00.720Z,100.00
2022-09-24T04:35:29.797Z,100.00
2022-09-24T04:37:57.263Z,100.00
2022-09-24T04:40:23.807Z,100.00
2022-09-24T04:42:50.416Z,100.00
2022-09-24T04:45:20.101Z,100.00
2022-09-24T04:47:52.460Z,100.00
2022-09-24T04:50:19.693Z,100.00
2022-09-24T04:52:46.211Z,100.00
2022-09-24T04:55:12.752Z,100.00
2022-09-24T04:57:41.106Z,100.00
2022-09-24T05:00:11.276Z,100.00
2022-09-24T05:02:37.832Z,100.00
2022-09-24T05:05:04.554Z,100.00
2022-09-24T05:07:31.047Z,100.00
2022-09-24T05:09:57.622Z,100.00
2022-09-24T05:12:24.089Z,100.00
2022-09-24T05:14:50.558Z,100.00
2022-09-24T05:17:17.014Z,100.00
2022-09-24T05:19:43.640Z,100.00
2022-09-24T05:22:10.195Z,100.00
2022-09-24T05:24:36.656Z,100.00
2022-09-24T05:27:09.708Z,100.00
2022-09-24T05:29:40.273Z,100.00
2022-09-24T05:32:08.391Z,100.00
2022-09-24T05:34:35.035Z,100.00
2022-09-24T05:37:02.199Z,100.00
2022-09-24T05:39:33.663Z,100.00
2022-09-24T05:42:03.617Z,100.00
2022-09-24T05:44:31.134Z,100.00
2022-09-24T05:46:57.812Z,100.00
2022-09-24T05:49:24.556Z,100.00
2022-09-24T05:51:51.449Z,100.00
2022-09-24T05:54:19.037Z,100.00
2022-09-24T05:56:46.105Z,100.00
2022-09-24T05:59:13.117Z,100.00
2022-09-24T06:01:39.677Z,100.00
2022-09-24T06:04:08.820Z,100.00
2022-09-24T06:06:35.811Z,100.00
2022-09-24T06:09:02.309Z,100.00
2022-09-24T06:11:39.039Z,100.00
2022-09-24T06:14:06.815Z,100.00
2022-09-24T06:16:34.330Z,100.00
2022-09-24T06:19:01.222Z,100.00
2022-09-24T06:21:27.755Z,100.00
2022-09-24T06:23:54.212Z,100.00
2022-09-24T06:26:20.732Z,100.00
2022-09-24T06:28:47.214Z,100.00
2022-09-24T06:31:13.822Z,100.00
2022-09-24T06:33:40.923Z,100.00
2022-09-24T06:36:07.574Z,100.00
2022-09-24T06:38:35.290Z,100.00
2022-09-24T06:41:03.592Z,100.00
2022-09-24T06:43:30.828Z,100.00
2022-09-24T06:45:58.319Z,100.00
2022-09-24T06:48:24.824Z,100.00
2022-09-24T06:50:51.518Z,100.00
2022-09-24T06:53:18.594Z,100.00
2022-09-24T06:55:50.926Z,100.00
2022-09-24T06:58:20.997Z,100.00
2022-09-24T07:00:58.224Z,100.00
2022-09-24T07:03:27.071Z,100.00
2022-09-24T07:05:53.589Z,100.00
2022-09-24T07:08:20.066Z,100.00
2022-09-24T07:10:49.097Z,100.00
2022-09-24T07:13:16.149Z,100.00
2022-09-24T07:15:43.258Z,100.00
2022-09-24T07:18:10.197Z,100.00
2022-09-24T07:20:36.972Z,100.00
2022-09-24T07:23:07.730Z,100.00
2022-09-24T07:25:34.221Z,100.00
2022-09-24T07:28:05.889Z,100.00
2022-09-24T07:30:33.537Z,100.00
2022-09-24T07:33:00.217Z,100.00
2022-09-24T07:35:27.752Z,100.00
2022-09-24T07:38:01.840Z,100.00
2022-09-24T07:40:29.247Z,100.00
2022-09-24T07:42:55.894Z,100.00
2022-09-24T07:45:23.565Z,100.00
2022-09-24T07:48:03.764Z,100.00
2022-09-24T07:50:32.307Z,100.00
2022-09-24T07:52:59.244Z,100.00
2022-09-24T07:55:27.190Z,100.00
2022-09-24T07:57:55.038Z,100.00
2022-09-24T08:00:23.428Z,100.00
2022-09-24T08:02:53.790Z,100.00
2022-09-24T08:05:20.421Z,100.00
2022-09-24T08:07:53.755Z,100.00
2022-09-24T08:10:20.322Z,100.00
2022-09-24T08:12:57.096Z,100.00
2022-09-24T08:15:24.013Z,100.00
2022-09-24T08:17:51.131Z,100.00
2022-09-24T08:20:17.729Z,100.00
2022-09-24T08:22:44.223Z,100.00
2022-09-24T08:25:10.758Z,100.00
2022-09-24T08:27:37.458Z,100.00
2022-09-24T08:30:05.388Z,100.00
2022-09-24T08:32:31.983Z,100.00
2022-09-24T08:34:58.570Z,100.00
2022-09-24T08:37:25.246Z,100.00
2022-09-24T08:39:51.821Z,100.00
2022-09-24T08:42:42.242Z,100.00
2022-09-24T08:45:28.918Z,100.00
2022-09-24T08:48:00.299Z,100.00
2022-09-24T08:50:34.266Z,100.00
2022-09-24T08:53:21.230Z,100.00
2022-09-24T08:55:49.995Z,100.00
2022-09-24T08:58:44.774Z,100.00
2022-09-24T09:01:11.400Z,100.00
2022-09-24T09:03:48.117Z,100.00
2022-09-24T09:06:42.011Z,100.00
2022-09-24T09:09:15.146Z,100.00
2022-09-24T09:11:47.118Z,100.00
2022-09-24T09:14:43.165Z,100.00
2022-09-24T09:17:48.047Z,100.00
2022-09-24T09:20:19.395Z,100.00
2022-09-24T09:22:50.980Z,100.00
2022-09-24T09:25:19.847Z,100.00
2022-09-24T09:27:51.273Z,100.00
2022-09-24T09:30:20.646Z,100.00
2022-09-24T09:33:05.099Z,100.00
2022-09-24T09:35:38.063Z,100.00
2022-09-24T09:38:11.440Z,100.00
2022-09-24T09:40:45.576Z,100.00
2022-09-24T09:43:13.560Z,100.00
2022-09-24T09:46:07.651Z,100.00
2022-09-24T09:48:45.116Z,100.00
2022-09-24T09:51:22.604Z,100.00
2022-09-24T09:53:58.042Z,100.00
2022-09-24T09:56:28.016Z,100.00
2022-09-24T09:59:03.566Z,100.00
2022-09-24T10:01:35.104Z,100.00
2022-09-24T10:04:03.055Z,100.00
2022-09-24T10:06:31.910Z,100.00
2022-09-24T10:09:12.750Z,100.00
2022-09-24T10:11:39.337Z,100.00
2022-09-24T10:14:08.819Z,100.00
2022-09-24T10:16:40.474Z,100.00
2022-09-24T10:19:16.101Z,100.00
2022-09-24T10:21:42.781Z,100.00
2022-09-24T10:24:21.307Z,100.00
2022-09-24T10:26:47.954Z,100.00
2022-09-24T10:29:49.808Z,100.00
2022-09-24T10:32:18.167Z,100.00
2022-09-24T10:35:00.928Z,100.00
2022-09-24T10:37:28.047Z,100.00
2022-09-24T10:40:03.410Z,100.00
2022-09-24T10:42:30.554Z,100.00
2022-09-24T10:45:01.108Z,100.00
2022-09-24T10:47:52.569Z,100.00
2022-09-24T10:51:00.258Z,100.00
2022-09-24T10:53:49.846Z,100.00
2022-09-24T10:56:38.186Z,100.00
2022-09-24T10:59:18.271Z,100.00
2022-09-24T11:01:51.625Z,100.00
2022-09-24T11:04:24.116Z,100.00
2022-09-24T11:07:45.685Z,100.00
2022-09-24T11:10:16.220Z,100.00
2022-09-24T11:13:10.449Z,100.00
2022-09-24T11:15:55.051Z,100.00
2022-09-24T11:18:46.795Z,99.54
2022-09-24T11:21:19.432Z,99.97
2022-09-24T11:24:07.949Z,98.72
2022-09-24T11:27:17.745Z,98.50
2022-09-24T11:29:55.132Z,98.23
2022-09-24T11:32:31.147Z,97.90
2022-09-24T11:35:19.358Z,98.27
2022-09-24T11:38:07.708Z,97.96
2022-09-24T11:40:53.069Z,98.01
2022-09-24T11:43:37.484Z,97.71
2022-09-24T11:46:22.308Z,97.33
2022-09-24T11:49:09.452Z,97.13
2022-09-24T11:51:54.616Z,96.74
2022-09-24T11:54:30.409Z,96.50
2022-09-24T11:57:03.019Z,96.15
2022-09-24T11:59:42.486Z,95.89
2022-09-24T12:02:23.913Z,94.99
2022-09-24T12:05:03.762Z,94.76
2022-09-24T12:07:39.663Z,94.36
2022-09-24T12:10:26.043Z,93.88
2022-09-24T12:12:54.641Z,93.61
2022-09-24T12:15:27.779Z,93.23
2022-09-24T12:18:17.303Z,92.79
2022-09-24T12:20:49.693Z,92.68
2022-09-24T12:23:20.702Z,92.95
2022-09-24T12:25:49.318Z,92.82
2022-09-24T12:28:37.291Z,92.44
2022-09-24T12:31:31.839Z,92.26
2022-09-24T12:34:21.778Z,91.99
2022-09-24T12:36:57.896Z,91.71
2022-09-24T12:39:38.777Z,91.12
2022-09-24T12:42:08.296Z,91.13
2022-09-24T12:44:37.300Z,91.64
2022-09-24T12:47:04.196Z,91.52
2022-09-24T12:49:34.310Z,90.66
2022-09-24T12:52:17.023Z,90.94
2022-09-24T12:54:44.371Z,90.23
2022-09-24T12:57:21.301Z,89.92
2022-09-24T13:00:01.825Z,89.99
2022-09-24T13:02:50.797Z,90.24
2022-09-24T13:05:27.731Z,89.87
2022-09-24T13:07:59.046Z,89.88
2022-09-24T13:10:27.451Z,89.58
2022-09-24T13:12:54.302Z,88.85
2022-09-24T13:15:28.690Z,88.53
2022-09-24T13:18:11.094Z,89.21
2022-09-24T13:20:46.151Z,88.72
2022-09-24T13:23:19.963Z,88.86
2022-09-24T13:25:59.991Z,88.78
2022-09-24T13:28:37.740Z,89.47
2022-09-24T13:31:22.489Z,89.04
2022-09-24T13:33:55.009Z,89.25
2022-09-24T13:36:49.689Z,88.67
2022-09-24T13:39:28.008Z,88.57
2022-09-24T13:42:16.444Z,88.55
2022-09-24T13:44:45.758Z,88.82
2022-09-24T13:47:33.520Z,89.00
2022-09-24T13:50:09.322Z,89.27
2022-09-24T13:52:40.740Z,88.36
2022-09-24T13:55:35.065Z,88.16
2022-09-24T13:58:01.560Z,88.20
2022-09-24T14:00:29.472Z,87.99
2022-09-24T14:03:19.538Z,86.84
2022-09-24T14:05:46.209Z,86.23
2022-09-24T14:08:14.668Z,86.02
2022-09-24T14:10:41.818Z,85.58
2022-09-24T14:13:21.609Z,85.75
2022-09-24T14:15:51.436Z,85.83
2022-09-24T14:18:20.351Z,85.84
2022-09-24T14:20:53.854Z,85.66
2022-09-24T14:23:24.093Z,85.18
2022-09-24T14:25:51.870Z,85.46
2022-09-24T14:28:19.286Z,84.67
2022-09-24T14:30:54.479Z,84.92
2022-09-24T14:33:25.827Z,85.32
2022-09-24T14:35:54.438Z,85.52
2022-09-24T14:38:26.471Z,86.32
2022-09-24T14:40:56.703Z,86.53
2022-09-24T14:43:43.300Z,85.84
2022-09-24T14:46:30.808Z,86.74
2022-09-24T14:49:27.672Z,86.34
2022-09-24T14:52:01.816Z,86.64
2022-09-24T14:54:42.964Z,87.63
2022-09-24T14:57:27.449Z,88.14
2022-09-24T14:59:53.945Z,88.02
2022-09-24T15:02:33.465Z,87.58
2022-09-24T15:05:06.127Z,87.71
2022-09-24T15:07:34.423Z,87.81
2022-09-24T15:10:02.654Z,87.66
2022-09-24T15:12:34.317Z,87.66
2022-09-24T15:15:17.347Z,87.52
2022-09-24T15:17:47.052Z,88.16
2022-09-24T15:20:14.005Z,88.53
2022-09-24T15:22:40.490Z,88.27
2022-09-24T15:25:07.468Z,87.42
2022-09-24T15:27:37.960Z,86.86
2022-09-24T15:30:07.913Z,85.31
2022-09-24T15:32:35.884Z,86.04
2022-09-24T15:35:07.555Z,85.97
2022-09-24T15:37:34.383Z,86.09
2022-09-24T15:40:30.785Z,87.04
2022-09-24T15:42:57.407Z,87.27
2022-09-24T15:45:24.994Z,87.75
2022-09-24T15:47:53.515Z,87.94
2022-09-24T15:50:21.233Z,88.54
2022-09-24T15:52:54.401Z,89.27
2022-09-24T15:55:22.241Z,89.81
2022-09-24T15:57:48.729Z,90.46
2022-09-24T16:00:20.959Z,90.32
2022-09-24T16:02:52.442Z,90.96
2022-09-24T16:05:19.047Z,91.32
2022-09-24T16:07:45.579Z,91.42
2022-09-24T16:10:13.774Z,92.62
2022-09-24T16:12:41.283Z,92.41
2022-09-24T16:15:08.356Z,92.74
2022-09-24T16:17:34.931Z,92.74
2022-09-24T16:20:01.881Z,91.88
2022-09-24T16:22:28.367Z,91.87
2022-09-24T16:24:54.819Z,91.36
2022-09-24T16:27:21.267Z,92.04
2022-09-24T16:29:47.813Z,91.39
2022-09-24T16:32:14.439Z,92.51
2022-09-24T16:34:41.102Z,91.92
2022-09-24T16:37:08.468Z,91.65
2022-09-24T16:39:34.933Z,92.01
2022-09-24T16:42:01.723Z,91.61
2022-09-24T16:44:28.259Z,91.95
2022-09-24T16:46:54.790Z,91.77
2022-09-24T16:49:22.924Z,91.43
2022-09-24T16:51:49.428Z,91.74
2022-09-24T16:54:15.972Z,91.63
2022-09-24T16:56:42.564Z,91.71
2022-09-24T16:59:10.362Z,91.98
2022-09-24T17:01:36.948Z,91.81
2022-09-24T17:04:03.418Z,92.16
2022-09-24T17:06:30.906Z,92.25
2022-09-24T17:09:16.408Z,93.21
2022-09-24T17:11:42.985Z,93.58
2022-09-24T17:14:12.200Z,93.57
2022-09-24T17:16:39.724Z,93.20
2022-09-24T17:19:07.919Z,94.00
2022-09-24T17:21:36.124Z,94.14
2022-09-24T17:24:02.896Z,93.88
2022-09-24T17:26:29.384Z,94.59
2022-09-24T17:28:57.031Z,94.74
2022-09-24T17:31:25.236Z,94.56
2022-09-24T17:34:03.270Z,94.81
2022-09-24T17:36:31.699Z,94.87
2022-09-24T17:38:59.332Z,95.29
2022-09-24T17:41:26.248Z,95.72
2022-09-24T17:43:52.727Z,95.51
2022-09-24T17:46:22.213Z,95.35
2022-09-24T17:48:54.559Z,95.66
2022-09-24T17:51:26.616Z,96.33
2022-09-24T17:53:54.848Z,96.08
2022-09-24T17:56:23.504Z,95.97
2022-09-24T17:58:50.324Z,96.16
2022-09-24T18:01:25.392Z,96.30
2022-09-24T18:03:56.682Z,96.84
2022-09-24T18:06:28.121Z,96.86
2022-09-24T18:08:57.398Z,96.86
2022-09-24T18:11:26.040Z,97.17
2022-09-24T18:13:54.163Z,97.38
2022-09-24T18:16:22.376Z,97.18
2022-09-24T18:18:51.771Z,97.67
2022-09-24T18:21:21.770Z,97.60
2022-09-24T18:23:48.560Z,97.79
2022-09-24T18:26:19.811Z,97.66
2022-09-24T18:28:46.219Z,97.96
2022-09-24T18:31:13.086Z,98.16
2022-09-24T18:33:43.533Z,97.95
2022-09-24T18:36:15.322Z,97.84
2022-09-24T18:38:44.199Z,97.74
2022-09-24T18:41:24.121Z,97.93
2022-09-24T18:43:52.250Z,97.78
2022-09-24T18:46:21.489Z,98.38
2022-09-24T18:48:50.976Z,97.84
2022-09-24T18:51:26.477Z,98.26
2022-09-24T18:53:57.029Z,97.96
2022-09-24T18:56:24.219Z,97.94
2022-09-24T18:59:09.469Z,98.16
2022-09-24T19:01:36.907Z,98.26
2022-09-24T19:04:03.747Z,98.20
2022-09-24T19:06:30.840Z,98.05
2022-09-24T19:08:57.348Z,98.54
2022-09-24T19:11:23.933Z,98.23
2022-09-24T19:13:52.805Z,98.53
2022-09-24T19:16:23.571Z,98.48
2022-09-24T19:18:51.644Z,98.23
2022-09-24T19:21:18.437Z,98.28
2022-09-24T19:23:47.376Z,98.21
2022-09-24T19:26:17.681Z,98.44
2022-09-24T19:28:45.021Z,98.42
2022-09-24T19:31:17.075Z,98.49
2022-09-24T19:33:44.133Z,98.17
2022-09-24T19:36:11.206Z,98.11
2022-09-24T19:38:37.898Z,97.74
2022-09-24T19:41:06.944Z,98.01
2022-09-24T19:43:34.275Z,97.99
2022-09-24T19:46:05.971Z,97.56
2022-09-24T19:48:37.400Z,98.26
2022-09-24T19:51:13.209Z,98.17
2022-09-24T19:53:42.751Z,98.58
2022-09-24T19:56:10.881Z,98.45
2022-09-24T19:58:37.470Z,98.43
2022-09-24T20:01:05.955Z,98.70
2022-09-24T20:03:33.689Z,98.22
2022-09-24T20:06:00.555Z,98.77
2022-09-24T20:08:27.242Z,98.27
2022-09-24T20:10:54.027Z,98.25
2022-09-24T20:13:20.973Z,97.90
2022-09-24T20:15:57.672Z,98.32
2022-09-24T20:18:24.223Z,98.39
2022-09-24T20:20:53.484Z,98.54
2022-09-24T20:23:21.003Z,98.94
2022-09-24T20:26:09.896Z,99.08
2022-09-24T20:28:39.764Z,98.91
2022-09-24T20:31:19.790Z,99.17
2022-09-24T20:33:47.678Z,98.51
2022-09-24T20:36:16.679Z,98.77
2022-09-24T20:38:46.188Z,98.50
2022-09-24T20:41:15.223Z,98.38
2022-09-24T20:43:41.692Z,98.25
2022-09-24T20:46:10.461Z,98.24
2022-09-24T20:48:37.301Z,97.68
2022-09-24T20:51:14.498Z,97.62
2022-09-24T20:53:41.874Z,97.54
2022-09-24T20:56:09.170Z,98.12
2022-09-24T20:58:36.700Z,97.94
2022-09-24T21:01:04.493Z,97.87
2022-09-24T21:03:43.993Z,97.95
2022-09-24T21:06:12.330Z,98.23
2022-09-24T21:08:43.167Z,98.12
2022-09-24T21:11:11.645Z,97.93
2022-09-24T21:13:44.586Z,98.16
2022-09-24T21:16:11.749Z,97.97
2022-09-24T21:18:40.678Z,98.02
2022-09-24T21:21:11.510Z,97.89
2022-09-24T21:23:39.544Z,97.97
2022-09-24T21:26:14.392Z,97.67
2022-09-24T21:28:43.156Z,97.35
2022-09-24T21:31:10.208Z,97.87
2022-09-24T21:33:36.980Z,97.64
2022-09-24T21:36:05.750Z,97.72
2022-09-24T21:38:32.563Z,97.31
2022-09-24T21:41:01.184Z,97.69
2022-09-24T21:43:32.361Z,97.78
2022-09-24T21:46:03.998Z,97.50
2022-09-24T21:48:37.271Z,97.79
2022-09-24T21:51:05.449Z,97.58
2022-09-24T21:53:33.354Z,97.68
2022-09-24T21:55:59.912Z,97.62
2022-09-24T21:58:26.552Z,97.32
2022-09-24T22:00:53.523Z,97.62
2022-09-24T22:03:20.867Z,97.58
2022-09-24T22:05:48.200Z,97.51
2022-09-24T22:08:15.434Z,98.06
2022-09-24T22:10:44.306Z,98.02
2022-09-24T22:13:16.355Z,97.71
2022-09-24T22:15:45.626Z,98.07
2022-09-24T22:18:12.082Z,97.97
2022-09-24T22:20:43.398Z,98.57
2022-09-24T22:23:10.636Z,98.37
2022-09-24T22:25:37.768Z,99.67
2022-09-24T22:28:04.564Z,100.00
2022-09-24T22:30:31.316Z,100.00
2022-09-24T22:32:57.958Z,100.00
2022-09-24T22:35:43.709Z,100.00
2022-09-24T22:38:10.196Z,100.00
2022-09-24T22:40:36.739Z,100.00
2022-09-24T22:43:03.236Z,100.00
2022-09-24T22:45:29.711Z,100.00
2022-09-24T22:47:56.695Z,100.00
2022-09-24T22:50:23.191Z,100.00
2022-09-24T22:52:50.154Z,100.00
2022-09-24T22:55:16.752Z,100.00
2022-09-24T22:57:43.227Z,100.00
2022-09-24T23:00:10.203Z,100.00
2022-09-24T23:02:36.651Z,100.00
2022-09-24T23:05:03.376Z,100.00
2022-09-24T23:07:29.906Z,100.00
2022-09-24T23:09:56.386Z,100.00
2022-09-24T23:12:22.896Z,100.00
2022-09-24T23:14:52.439Z,100.00
2022-09-24T23:17:20.241Z,100.00
2022-09-24T23:19:49.523Z,100.00
2022-09-24T23:22:17.067Z,100.00
2022-09-24T23:24:44.041Z,100.00
2022-09-24T23:27:10.593Z,100.00
2022-09-24T23:29:37.477Z,100.00
2022-09-24T23:32:04.350Z,100.00
2022-09-24T23:34:30.854Z,100.00
2022-09-24T23:36:57.334Z,100.00
2022-09-24T23:39:23.844Z,100.00
2022-09-24T23:41:50.763Z,100.00
2022-09-24T23:44:17.252Z,100.00
2022-09-24T23:46:44.053Z,100.00
2022-09-24T23:49:11.091Z,100.00
2022-09-24T23:51:37.631Z,100.00
2022-09-24T23:54:04.370Z,100.00
2022-09-24T23:56:31.383Z,100.00
2022-09-24T23:58:57.926Z,100.00
